Time;durP1;ratioP1;P1;durP2;ratioP2;P2;SDS_P1;SDS_P2;PMS_P1;PMS_P2;Temp;Humidity;BMP_temperature;BMP_pressure;BME280_temperature;BME280_humidity;BME280_pressure;Samples;Min_cycle;Max_cycle;Signal;HPM_P1;HPM_P2
2022/10/13 00:01:08;;;;;;;;;;;;;;;;;;5138493;27;19915;-76
2022/10/13 00:03:33;;;;;;;;;;;;;;;;;;5137331;27;19916;-78
2022/10/13 00:05:59;;;;;;;;;;;;;;;;;;5138454;27;19915;-78
2022/10/13 00:08:25;;;;;;;;;;;;;;;;;;5138411;27;20302;-78
2022/10/13 00:10:50;;;;;;;;;;;;;;;;;;5137090;27;20361;-78
2022/10/13 00:13:16;;;;;;;;;;;;;;;;;;5138313;27;19916;-78
2022/10/13 00:15:42;;;;;;;;;;;;;;;;;;5138737;27;20233;-78
2022/10/13 00:18:07;;;;;;;;;;;;;;;;;;5138233;27;20060;-78
2022/10/13 00:20:33;;;;;;;;;;;;;;;;;;5138490;27;19955;-78
2022/10/13 00:22:58;;;;;;;;;;;;;;;;;;5136743;27;20337;-78
2022/10/13 00:25:23;;;;;;;;;;;;;;;;;;5138084;27;19945;-78
2022/10/13 00:27:49;;;;;;;;;;;;;;;;;;5136787;27;19915;-78
2022/10/13 00:30:14;;;;;;;;;;;;;;;;;;5137924;27;20013;-78
2022/10/13 00:32:40;;;;;;;;;;;;;;;;;;5138074;27;20002;-78
2022/10/13 00:35:05;;;;;;;;;;;;;;;;;;5137603;27;19972;-78
2022/10/13 00:37:30;;;;;;;;;;;;;;;;;;5138066;27;19915;-78
2022/10/13 00:39:56;;;;;;;;;;;;;;;;;;5137645;27;19915;-77
2022/10/13 00:42:25;;;;;;;;;;;;;;;;;;5137718;27;20001;-77
2022/10/13 00:44:59;;;;;;;;;;;;;;;;;;5137779;27;20399;-78
2022/10/13 00:47:27;;;;;;;;;;;;;;;;;;5137930;27;20329;-78
2022/10/13 00:49:52;;;;;;;;;;;;;;;;;;5135425;27;20355;-77
2022/10/13 00:52:18;;;;;;;;;;;;;;;;;;5135727;27;19966;-78
2022/10/13 00:54:43;;;;;;;;;;;;;;;;;;5136210;27;19961;-77
2022/10/13 00:57:08;;;;;;;;;;;;;;;;;;5136286;27;20016;-77
2022/10/13 00:59:34;;;;;;;;;;;;;;;;;;5136129;27;20069;-78
2022/10/13 01:01:59;;;;;;;;;;;;;;;;;;5119058;27;20685;-77
2022/10/13 01:04:25;;;;;;;;;;;;;;;;;;5135972;27;20395;-78
2022/10/13 01:06:51;;;;;;;;;;;;;;;;;;5135996;27;19922;-78
2022/10/13 01:09:17;;;;;;;;;;;;;;;;;;5136045;27;19994;-78
2022/10/13 01:11:58;;;;;;;;;;;;;;;;;;5137232;27;19916;-78
2022/10/13 01:14:28;;;;;;;;;;;;;;;;;;5118816;27;19923;-78
2022/10/13 01:16:56;;;;;;;;;;;;;;;;;;5135613;27;19915;-78
2022/10/13 01:19:40;;;;;;;;;;;;;;;;;;5137095;27;19957;-78
2022/10/13 01:22:22;;;;;;;;;;;;;;;;;;5137068;27;19916;-79
2022/10/13 01:24:52;;;;;;;;;;;;;;;;;;5135649;27;20006;-77
2022/10/13 01:27:22;;;;;;;;;;;;;;;;;;5135661;27;20006;-78
2022/10/13 01:29:57;;;;;;;;;;;;;;;;;;5135629;27;19915;-78
2022/10/13 01:32:29;;;;;;;;;;;;;;;;;;5135223;27;19980;-78
2022/10/13 01:35:15;;;;;;;;;;;;;;;;;;5136640;27;19922;-78
2022/10/13 01:37:54;;;;;;;;;;;;;;;;;;5135960;27;19954;-78
2022/10/13 01:40:23;;;;;;;;;;;;;;;;;;5135608;27;19922;-78
2022/10/13 01:42:54;;;;;;;;;;;;;;;;;;5136461;27;20299;-78
2022/10/13 01:45:20;;;;;;;;;;;;;;;;;;5136533;27;20313;-78
2022/10/13 01:47:45;;;;;;;;;;;;;;;;;;5118435;27;20205;-76
2022/10/13 01:50:11;;;;;;;;;;;;;;;;;;5135170;27;19915;-78
2022/10/13 01:52:36;;;;;;;;;;;;;;;;;;5136361;27;20006;-79
2022/10/13 01:55:09;;;;;;;;;;;;;;;;;;5135363;27;19959;-78
2022/10/13 01:57:34;;;;;;;;;;;;;;;;;;5135174;27;19923;-78
2022/10/13 02:00:03;;;;;;;;;;;;;;;;;;5136803;27;19915;-77
2022/10/13 02:02:34;;;;;;;;;;;;;;;;;;5134238;27;19920;-77
2022/10/13 02:05:02;;;;;;;;;;;;;;;;;;5135161;27;19997;-78
2022/10/13 02:07:40;;;;;;;;;;;;;;;;;;5136055;27;19911;-78
2022/10/13 02:10:11;;;;;;;;;;;;;;;;;;5136272;27;19915;-78
2022/10/13 02:12:59;;;;;;;;;;;;;;;;;;5117805;27;19925;-78
2022/10/13 02:15:27;;;;;;;;;;;;;;;;;;5127451;27;19980;-78
2022/10/13 02:17:53;;;;;;;;;;;;;;;;;;5134775;27;19960;-78
2022/10/13 02:20:18;;;;;;;;;;;;;;;;;;5134868;27;19915;-78
2022/10/13 02:22:44;;;;;;;;;;;;;;;;;;5134812;27;19952;-78
2022/10/13 02:25:10;;;;;;;;;;;;;;;;;;5134830;27;19966;-78
2022/10/13 02:27:35;;;;;;;;;;;;;;;;;;5135216;27;19955;-78
2022/10/13 02:30:00;;;;;;;;;;;;;;;;;;5135858;27;19915;-78
2022/10/13 02:32:26;;;;;;;;;;;;;;;;;;5137487;27;19922;-79
2022/10/13 02:34:51;;;;;;;;;;;;;;;;;;5149222;27;19916;-78
2022/10/13 02:37:16;;;;;;;;;;;;;;;;;;5150894;27;19915;-77
2022/10/13 02:39:41;;;;;;;;;;;;;;;;;;5155153;27;19916;-78
2022/10/13 02:42:07;;;;;;;;;;;;;;;;;;5158268;27;19943;-79
2022/10/13 02:44:32;;;;;;;;;;;;;;;;;;5158153;27;19909;-79
2022/10/13 02:46:57;;;;;;;;;;;;;;;;;;5148653;27;19912;-79
2022/10/13 02:49:23;;;;;;;;;;;;;;;;;;5122269;28;19915;-77
2022/10/13 02:51:48;;;;;;;;;;;;;;;;;;5116578;28;20109;-77
2022/10/13 02:54:14;;;;;;;;;;;;;;;;;;5097431;28;19919;-78
2022/10/13 02:56:39;;;;;;;;;;;;;;;;;;5114851;28;19920;-78
2022/10/13 02:59:04;;;;;;;;;;;;;;;;;;5114225;28;19920;-77
2022/10/13 03:01:30;;;;;;;;;;;;;;;;;;5113340;28;19916;-77
2022/10/13 03:03:55;;;;;;;;;;;;;;;;;;5114530;28;20002;-78
2022/10/13 03:09:04;;;;;;;;;;;;;;;;;;5113466;28;19922;-77
2022/10/13 03:11:30;;;;;;;;;;;;;;;;;;5113368;28;20319;-77
2022/10/13 03:13:55;;;;;;;;;;;;;;;;;;5115181;28;19919;-78
2022/10/13 03:16:20;;;;;;;;;;;;;;;;;;5117660;28;19950;-78
2022/10/13 03:18:45;;;;;;;;;;;;;;;;;;5117306;28;19939;-77
2022/10/13 03:21:11;;;;;;;;;;;;;;;;;;5117390;28;19916;-78
2022/10/13 03:23:36;;;;;;;;;;;;;;;;;;5117440;28;19922;-78
2022/10/13 03:26:03;;;;;;;;;;;;;;;;;;5118411;28;20029;-77
2022/10/13 03:28:28;;;;;;;;;;;;;;;;;;5118159;28;19916;-77
2022/10/13 03:31:03;;;;;;;;;;;;;;;;;;5118855;28;20236;-78
2022/10/13 03:33:28;;;;;;;;;;;;;;;;;;5100277;28;19959;-77
2022/10/13 03:35:56;;;;;;;;;;;;;;;;;;5117323;28;19959;-77
2022/10/13 03:38:21;;;;;;;;;;;;;;;;;;5118082;28;19916;-77
2022/10/13 03:40:47;;;;;;;;;;;;;;;;;;5117095;28;19924;-77
2022/10/13 03:43:12;;;;;;;;;;;;;;;;;;5116867;28;19916;-78
2022/10/13 03:45:37;;;;;;;;;;;;;;;;;;5117984;28;19934;-78
2022/10/13 03:48:03;;;;;;;;;;;;;;;;;;5117948;28;19916;-78
2022/10/13 03:50:28;;;;;;;;;;;;;;;;;;5117922;28;19915;-77
2022/10/13 03:52:53;;;;;;;;;;;;;;;;;;5118482;28;19919;-77
2022/10/13 03:55:19;;;;;;;;;;;;;;;;;;5117877;28;19916;-77
2022/10/13 03:57:44;;;;;;;;;;;;;;;;;;5117561;28;20287;-77
2022/10/13 04:00:10;;;;;;;;;;;;;;;;;;5116832;28;19916;-78
2022/10/13 04:02:35;;;;;;;;;;;;;;;;;;5116511;28;20234;-78
2022/10/13 04:05:00;;;;;;;;;;;;;;;;;;5114048;27;20317;-76
2022/10/13 04:07:26;;;;;;;;;;;;;;;;;;5137435;27;19922;-76
2022/10/13 04:09:51;;;;;;;;;;;;;;;;;;5137821;27;20017;-77
2022/10/13 04:12:16;;;;;;;;;;;;;;;;;;5135876;27;20002;-77
2022/10/13 04:14:42;;;;;;;;;;;;;;;;;;5137373;27;19916;-77
2022/10/13 04:17:07;;;;;;;;;;;;;;;;;;5137876;27;19919;-77
2022/10/13 04:19:32;;;;;;;;;;;;;;;;;;5137242;27;19916;-77
2022/10/13 04:21:57;;;;;;;;;;;;;;;;;;5137464;27;19922;-77
2022/10/13 04:24:23;;;;;;;;;;;;;;;;;;5136503;27;19927;-77
2022/10/13 04:26:48;;;;;;;;;;;;;;;;;;5137179;27;19916;-76
2022/10/13 04:29:13;;;;;;;;;;;;;;;;;;5136102;27;19922;-77
2022/10/13 04:31:39;;;;;;;;;;;;;;;;;;5135991;27;19916;-77
2022/10/13 04:34:04;;;;;;;;;;;;;;;;;;5137673;27;19916;-77
2022/10/13 04:36:30;;;;;;;;;;;;;;;;;;5137741;27;19922;-78
2022/10/13 04:38:55;;;;;;;;;;;;;;;;;;5135619;27;20060;-78
2022/10/13 04:41:20;;;;;;;;;;;;;;;;;;5135332;27;20010;-76
2022/10/13 04:43:49;;;;;;;;;;;;;;;;;;5136956;27;20002;-77
2022/10/13 04:46:17;;;;;;;;;;;;;;;;;;5135303;27;20332;-77
2022/10/13 04:48:46;;;;;;;;;;;;;;;;;;5123526;27;19922;-78
2022/10/13 04:51:12;;;;;;;;;;;;;;;;;;5140521;27;19957;-79
2022/10/13 04:53:37;;;;;;;;;;;;;;;;;;5110105;27;19924;-76
2022/10/13 04:56:03;;;;;;;;;;;;;;;;;;5124884;27;19943;-77
2022/10/13 04:58:29;;;;;;;;;;;;;;;;;;5129627;27;19919;-77
2022/10/13 05:00:55;;;;;;;;;;;;;;;;;;5133426;27;20306;-76
2022/10/13 05:03:20;;;;;;;;;;;;;;;;;;5132677;27;20106;-75
2022/10/13 05:08:23;;;;;;;;;;;;;;;;;;5124188;22;19935;-75
2022/10/13 05:10:53;;;;;;;;;;;;;;;;;;5095672;28;20310;-76
2022/10/13 05:13:19;;;;;;;;;;;;;;;;;;5094533;28;20109;-76
2022/10/13 05:15:44;;;;;;;;;;;;;;;;;;5098969;28;20034;-76
2022/10/13 05:18:09;;;;;;;;;;;;;;;;;;5091919;28;19985;-76
2022/10/13 05:20:35;;;;;;;;;;;;;;;;;;5115029;28;19926;-76
2022/10/13 05:23:01;;;;;;;;;;;;;;;;;;5097689;28;19930;-74
2022/10/13 05:25:26;;;;;;;;;;;;;;;;;;5102977;28;19962;-77
2022/10/13 05:27:52;;;;;;;;;;;;;;;;;;5117011;28;19916;-77
2022/10/13 05:30:17;;;;;;;;;;;;;;;;;;5102338;28;19923;-78
2022/10/13 05:32:43;;;;;;;;;;;;;;;;;;5114033;28;19965;-78
2022/10/13 05:35:08;;;;;;;;;;;;;;;;;;5079183;28;19974;-77
2022/10/13 05:37:33;;;;;;;;;;;;;;;;;;5101141;27;19955;-76
2022/10/13 05:39:59;;;;;;;;;;;;;;;;;;5112919;27;19927;-77
2022/10/13 05:42:24;;;;;;;;;;;;;;;;;;5089042;28;20075;-77
2022/10/13 05:44:49;;;;;;;;;;;;;;;;;;5098628;28;19920;-76
2022/10/13 05:47:15;;;;;;;;;;;;;;;;;;5104729;28;19927;-76
2022/10/13 05:49:41;;;;;;;;;;;;;;;;;;5089755;28;19931;-76
2022/10/13 05:52:07;;;;;;;;;;;;;;;;;;5104722;28;20384;-77
2022/10/13 05:54:34;;;;;;;;;;;;;;;;;;5087404;28;19920;-77
2022/10/13 05:57:06;;;;;;;;;;;;;;;;;;5080880;28;19926;-76
2022/10/13 05:59:34;;;;;;;;;;;;;;;;;;5107166;28;19919;-76
2022/10/13 06:02:00;;;;;;;;;;;;;;;;;;5094065;28;20324;-76
2022/10/13 06:04:27;;;;;;;;;;;;;;;;;;5104769;28;20466;-78
2022/10/13 06:06:52;;;;;;;;;;;;;;;;;;5091782;28;19920;-76
2022/10/13 06:09:18;;;;;;;;;;;;;;;;;;5108995;28;20328;-77
2022/10/13 06:11:43;;;;;;;;;;;;;;;;;;5096167;28;19938;-77
2022/10/13 06:14:09;;;;;;;;;;;;;;;;;;5092645;28;19935;-77
2022/10/13 06:16:35;;;;;;;;;;;;;;;;;;5093688;28;20260;-78
2022/10/13 06:19:04;;;;;;;;;;;;;;;;;;5112213;28;19963;-77
2022/10/13 06:21:29;;;;;;;;;;;;;;;;;;5094577;28;19912;-78
2022/10/13 06:23:55;;;;;;;;;;;;;;;;;;5121424;28;19980;-77
2022/10/13 06:26:21;;;;;;;;;;;;;;;;;;5119089;28;19923;-77
2022/10/13 06:28:46;;;;;;;;;;;;;;;;;;5117962;28;19916;-77
2022/10/13 06:31:11;;;;;;;;;;;;;;;;;;5114305;28;20010;-78
2022/10/13 06:33:37;;;;;;;;;;;;;;;;;;5093643;28;19912;-76
2022/10/13 06:36:03;;;;;;;;;;;;;;;;;;5099266;28;19977;-76
2022/10/13 06:38:28;;;;;;;;;;;;;;;;;;5124725;28;19955;-77
2022/10/13 06:40:53;;;;;;;;;;;;;;;;;;5098117;28;19947;-76
2022/10/13 06:43:19;;;;;;;;;;;;;;;;;;5097352;28;19973;-77
2022/10/13 06:45:44;;;;;;;;;;;;;;;;;;5107066;28;20338;-74
2022/10/13 06:48:10;;;;;;;;;;;;;;;;;;5107100;28;19920;-76
2022/10/13 06:50:35;;;;;;;;;;;;;;;;;;5111373;28;20275;-76
2022/10/13 06:53:00;;;;;;;;;;;;;;;;;;5105216;28;20325;-76
2022/10/13 06:55:26;;;;;;;;;;;;;;;;;;5109193;28;19916;-78
2022/10/13 06:57:52;;;;;;;;;;;;;;;;;;5105308;28;19920;-77
2022/10/13 07:00:17;;;;;;;;;;;;;;;;;;5092681;28;20023;-76
2022/10/13 07:02:52;;;;;;;;;;;;;;;;;;5111768;28;19923;-76
2022/10/13 07:05:17;;;;;;;;;;;;;;;;;;5110649;28;19981;-78
2022/10/13 07:07:43;;;;;;;;;;;;;;;;;;5091788;28;19920;-75
2022/10/13 07:10:09;;;;;;;;;;;;;;;;;;5109924;28;19919;-75
2022/10/13 07:12:35;;;;;;;;;;;;;;;;;;5092033;28;19959;-76
2022/10/13 07:15:02;;;;;;;;;;;;;;;;;;5104797;28;19920;-75
2022/10/13 07:17:31;;;;;;;;;;;;;;;;;;5111404;28;19916;-77
2022/10/13 07:19:57;;;;;;;;;;;;;;;;;;5102911;28;19926;-76
2022/10/13 07:22:23;;;;;;;;;;;;;;;;;;5098805;28;19924;-78
2022/10/13 07:24:48;;;;;;;;;;;;;;;;;;5117219;28;19915;-77
2022/10/13 07:27:14;;;;;;;;;;;;;;;;;;5114665;28;19926;-74
2022/10/13 07:29:39;;;;;;;;;;;;;;;;;;5108794;28;19920;-74
2022/10/13 07:32:05;;;;;;;;;;;;;;;;;;5096278;28;19968;-74
2022/10/13 07:34:30;;;;;;;;;;;;;;;;;;5085546;28;20004;-75
2022/10/13 07:36:59;;;;;;;;;;;;;;;;;;5108079;28;20035;-75
2022/10/13 07:39:24;;;;;;;;;;;;;;;;;;5086884;28;19950;-76
2022/10/13 07:41:56;;;;;;;;;;;;;;;;;;5107336;28;19916;-75
2022/10/13 07:44:21;;;;;;;;;;;;;;;;;;5087909;28;20388;-75
2022/10/13 07:46:46;;;;;;;;;;;;;;;;;;5108979;28;20018;-76
2022/10/13 07:49:12;;;;;;;;;;;;;;;;;;5106700;28;20301;-76
2022/10/13 07:51:37;;;;;;;;;;;;;;;;;;5108011;28;20056;-75
2022/10/13 07:54:03;;;;;;;;;;;;;;;;;;5098852;28;19920;-76
2022/10/13 07:56:29;;;;;;;;;;;;;;;;;;5072544;28;20234;-75
2022/10/13 07:58:54;;;;;;;;;;;;;;;;;;5103564;28;19919;-75
2022/10/13 08:01:23;;;;;;;;;;;;;;;;;;5096661;28;20014;-73
2022/10/13 08:03:48;;;;;;;;;;;;;;;;;;5089991;28;19920;-76
2022/10/13 08:06:13;;;;;;;;;;;;;;;;;;5108828;28;19920;-76
2022/10/13 08:08:39;;;;;;;;;;;;;;;;;;5095889;28;19920;-75
2022/10/13 08:11:13;;;;;;;;;;;;;;;;;;5095147;28;19920;-75
2022/10/13 08:13:38;;;;;;;;;;;;;;;;;;5078065;28;20303;-75
2022/10/13 08:16:04;;;;;;;;;;;;;;;;;;5094689;28;19920;-75
2022/10/13 08:18:29;;;;;;;;;;;;;;;;;;5093334;28;20027;-74
2022/10/13 08:20:54;;;;;;;;;;;;;;;;;;5074030;28;20271;-75
2022/10/13 08:23:20;;;;;;;;;;;;;;;;;;5093241;28;19967;-75
2022/10/13 08:25:45;;;;;;;;;;;;;;;;;;5093315;28;19951;-74
2022/10/13 08:28:21;;;;;;;;;;;;;;;;;;5076228;28;20269;-74
2022/10/13 08:30:46;;;;;;;;;;;;;;;;;;5093108;28;20234;-74
2022/10/13 08:33:12;;;;;;;;;;;;;;;;;;5079009;28;19970;-75
2022/10/13 08:35:37;;;;;;;;;;;;;;;;;;5096323;28;19928;-74
2022/10/13 08:38:02;;;;;;;;;;;;;;;;;;5095025;28;20256;-74
2022/10/13 08:40:28;;;;;;;;;;;;;;;;;;5097293;28;19920;-75
2022/10/13 08:42:54;;;;;;;;;;;;;;;;;;5101532;28;19920;-75
2022/10/13 08:45:24;;;;;;;;;;;;;;;;;;5094752;28;19916;-75
2022/10/13 08:47:53;;;;;;;;;;;;;;;;;;5082427;28;20430;-75
2022/10/13 08:50:23;;;;;;;;;;;;;;;;;;5084026;28;19924;-74
2022/10/13 08:52:52;;;;;;;;;;;;;;;;;;5089698;28;19926;-73
2022/10/13 08:55:31;;;;;;;;;;;;;;;;;;5085820;28;19927;-75
2022/10/13 08:57:57;;;;;;;;;;;;;;;;;;5098311;28;19967;-74
2022/10/13 09:00:22;;;;;;;;;;;;;;;;;;5102823;28;20043;-74
2022/10/13 09:02:48;;;;;;;;;;;;;;;;;;5105573;28;20639;-73
2022/10/13 09:05:40;;;;;;;;;;;;;;;;;;5078917;28;19973;-74
2022/10/13 09:08:07;;;;;;;;;;;;;;;;;;5099569;28;19923;-74
2022/10/13 09:10:32;;;;;;;;;;;;;;;;;;5110783;28;19938;-75
2022/10/13 09:13:00;;;;;;;;;;;;;;;;;;5108416;28;20479;-72
2022/10/13 09:15:25;;;;;;;;;;;;;;;;;;5110398;28;19916;-73
2022/10/13 09:18:06;;;;;;;;;;;;;;;;;;5106180;28;19923;-71
2022/10/13 09:20:32;;;;;;;;;;;;;;;;;;5074718;28;19922;-76
2022/10/13 09:23:02;;;;;;;;;;;;;;;;;;5073775;28;20259;-74
2022/10/13 09:25:27;;;;;;;;;;;;;;;;;;5092020;28;19982;-74
2022/10/13 09:27:54;;;;;;;;;;;;;;;;;;5087129;28;19920;-74
2022/10/13 09:30:38;;;;;;;;;;;;;;;;;;5096893;28;19916;-73
2022/10/13 09:33:03;;;;;;;;;;;;;;;;;;5113846;28;19930;-73
2022/10/13 09:35:31;;;;;;;;;;;;;;;;;;5098089;28;20346;-74
2022/10/13 09:38:06;;;;;;;;;;;;;;;;;;5106989;28;19924;-74
2022/10/13 09:40:31;;;;;;;;;;;;;;;;;;5104866;28;20026;-74
2022/10/13 09:42:57;;;;;;;;;;;;;;;;;;5087890;28;20034;-74
2022/10/13 09:45:23;;;;;;;;;;;;;;;;;;5086763;28;20357;-73
2022/10/13 09:47:56;;;;;;;;;;;;;;;;;;5085130;28;19978;-73
2022/10/13 09:50:22;;;;;;;;;;;;;;;;;;5101102;28;20358;-73
2022/10/13 09:52:48;;;;;;;;;;;;;;;;;;5074011;28;19921;-76
2022/10/13 09:55:26;;;;;;;;;;;;;;;;;;5065406;28;19920;-72
2022/10/13 09:57:51;;;;;;;;;;;;;;;;;;5096504;28;19927;-73
2022/10/13 10:00:20;;;;;;;;;;;;;;;;;;5092532;28;20341;-72
2022/10/13 10:03:05;;;;;;;;;;;;;;;;;;5104350;28;19924;-76
2022/10/13 10:05:30;;;;;;;;;;;;;;;;;;5074324;28;19943;-73
2022/10/13 10:07:57;;;;;;;;;;;;;;;;;;5088213;28;19920;-73
2022/10/13 10:10:33;;;;;;;;;;;;;;;;;;5088181;28;20462;-74
2022/10/13 10:12:59;;;;;;;;;;;;;;;;;;5090132;28;19916;-76
2022/10/13 10:15:35;;;;;;;;;;;;;;;;;;5092626;28;19935;-74
2022/10/13 10:18:06;;;;;;;;;;;;;;;;;;5091113;28;19939;-75
2022/10/13 10:20:34;;;;;;;;;;;;;;;;;;5068020;28;19916;-78
2022/10/13 10:23:02;;;;;;;;;;;;;;;;;;5102655;28;19930;-75
2022/10/13 10:25:34;;;;;;;;;;;;;;;;;;5098445;28;20362;-73
2022/10/13 10:28:15;;;;;;;;;;;;;;;;;;5079172;28;19924;-74
2022/10/13 10:31:00;;;;;;;;;;;;;;;;;;5105476;28;19930;-73
2022/10/13 10:33:34;;;;;;;;;;;;;;;;;;5090083;28;19942;-73
2022/10/13 10:36:07;;;;;;;;;;;;;;;;;;5089785;28;20343;-73
2022/10/13 10:38:48;;;;;;;;;;;;;;;;;;5085045;28;19927;-73
2022/10/13 10:41:25;;;;;;;;;;;;;;;;;;5100133;28;20320;-74
2022/10/13 10:43:52;;;;;;;;;;;;;;;;;;5099239;28;19920;-76
2022/10/13 10:46:19;;;;;;;;;;;;;;;;;;5098382;28;19920;-74
2022/10/13 10:48:45;;;;;;;;;;;;;;;;;;5104658;28;19957;-74
2022/10/13 10:51:11;;;;;;;;;;;;;;;;;;5082507;28;19927;-73
2022/10/13 10:53:56;;;;;;;;;;;;;;;;;;5088977;28;19956;-74
2022/10/13 10:56:36;;;;;;;;;;;;;;;;;;5072147;28;19927;-78
2022/10/13 10:59:16;;;;;;;;;;;;;;;;;;5083921;28;19951;-78
2022/10/13 11:01:44;;;;;;;;;;;;;;;;;;5104631;28;19931;-78
2022/10/13 11:04:25;;;;;;;;;;;;;;;;;;5078464;28;19920;-78
2022/10/13 11:06:50;;;;;;;;;;;;;;;;;;5083034;28;19920;-78
2022/10/13 11:09:17;;;;;;;;;;;;;;;;;;5068694;28;20238;-76
2022/10/13 11:11:42;;;;;;;;;;;;;;;;;;5103911;28;20514;-77
2022/10/13 11:14:08;;;;;;;;;;;;;;;;;;5092787;28;19931;-77
2022/10/13 11:16:33;;;;;;;;;;;;;;;;;;5099936;28;20362;-77
2022/10/13 11:19:17;;;;;;;;;;;;;;;;;;5109209;28;19926;-78
2022/10/13 11:22:02;;;;;;;;;;;;;;;;;;5096977;28;19927;-77
2022/10/13 11:24:40;;;;;;;;;;;;;;;;;;5106036;28;19962;-79
2022/10/13 11:27:15;;;;;;;;;;;;;;;;;;5085543;28;19931;-79
2022/10/13 11:29:50;;;;;;;;;;;;;;;;;;5078083;28;19920;-78
2022/10/13 11:32:24;;;;;;;;;;;;;;;;;;5103937;28;19923;-79
2022/10/13 11:34:56;;;;;;;;;;;;;;;;;;5107535;28;19983;-77
2022/10/13 11:37:22;;;;;;;;;;;;;;;;;;5091714;28;20008;-79
2022/10/13 11:39:48;;;;;;;;;;;;;;;;;;5098509;28;20034;-78
2022/10/13 11:42:20;;;;;;;;;;;;;;;;;;5105630;28;19923;-79
2022/10/13 11:44:55;;;;;;;;;;;;;;;;;;5092359;28;19926;-79
2022/10/13 11:47:36;;;;;;;;;;;;;;;;;;5093444;28;19912;-78
2022/10/13 11:50:20;;;;;;;;;;;;;;;;;;5095002;28;19920;-78
2022/10/13 11:53:06;;;;;;;;;;;;;;;;;;5110255;28;20295;-79
2022/10/13 11:55:51;;;;;;;;;;;;;;;;;;5090572;28;19954;-79
2022/10/13 11:58:16;;;;;;;;;;;;;;;;;;5094056;28;20386;-79
2022/10/13 12:01:08;;;;;;;;;;;;;;;;;;5110116;28;19912;-78
2022/10/13 12:03:33;;;;;;;;;;;;;;;;;;5089031;28;20445;-78
2022/10/13 12:06:00;;;;;;;;;;;;;;;;;;5074384;28;19916;-78
2022/10/13 12:08:26;;;;;;;;;;;;;;;;;;5075139;28;19920;-77
2022/10/13 12:10:53;;;;;;;;;;;;;;;;;;5076056;28;19923;-77
2022/10/13 12:13:25;;;;;;;;;;;;;;;;;;5094804;28;20213;-78
2022/10/13 12:15:59;;;;;;;;;;;;;;;;;;5060287;28;19916;-78
2022/10/13 12:18:35;;;;;;;;;;;;;;;;;;5075519;28;19924;-77
2022/10/13 12:21:02;;;;;;;;;;;;;;;;;;5077228;28;19959;-78
2022/10/13 12:23:27;;;;;;;;;;;;;;;;;;5096052;28;19942;-78
2022/10/13 12:25:57;;;;;;;;;;;;;;;;;;5095515;28;19916;-77
2022/10/13 12:28:24;;;;;;;;;;;;;;;;;;5062848;28;19916;-77
2022/10/13 12:30:50;;;;;;;;;;;;;;;;;;5079086;28;19947;-78
2022/10/13 12:33:21;;;;;;;;;;;;;;;;;;5096897;28;19916;-78
2022/10/13 12:35:47;;;;;;;;;;;;;;;;;;5078929;28;19917;-77
2022/10/13 12:38:18;;;;;;;;;;;;;;;;;;5096477;28;19916;-77
2022/10/13 12:40:44;;;;;;;;;;;;;;;;;;5078492;28;20057;-78
2022/10/13 12:43:12;;;;;;;;;;;;;;;;;;5078827;28;20317;-78
2022/10/13 12:45:37;;;;;;;;;;;;;;;;;;5078232;28;19916;-77
2022/10/13 12:48:03;;;;;;;;;;;;;;;;;;5078458;28;19916;-78
2022/10/13 12:50:32;;;;;;;;;;;;;;;;;;5096305;28;19917;-78
2022/10/13 12:53:06;;;;;;;;;;;;;;;;;;5078005;28;20269;-78
2022/10/13 12:55:32;;;;;;;;;;;;;;;;;;5096333;28;20009;-77
2022/10/13 12:57:57;;;;;;;;;;;;;;;;;;5077826;28;19966;-78
2022/10/13 13:00:23;;;;;;;;;;;;;;;;;;5095765;28;20001;-78
2022/10/13 13:02:51;;;;;;;;;;;;;;;;;;5095740;28;20401;-78
2022/10/13 13:05:35;;;;;;;;;;;;;;;;;;5095134;28;20260;-78
2022/10/13 13:08:00;;;;;;;;;;;;;;;;;;5095858;28;19965;-79
2022/10/13 13:10:26;;;;;;;;;;;;;;;;;;5096013;28;20348;-77
2022/10/13 13:12:51;;;;;;;;;;;;;;;;;;5078472;28;20344;-78
2022/10/13 13:15:23;;;;;;;;;;;;;;;;;;5077978;28;20383;-77
2022/10/13 13:17:48;;;;;;;;;;;;;;;;;;5095928;28;19917;-78
2022/10/13 13:20:30;;;;;;;;;;;;;;;;;;5096357;28;19912;-77
2022/10/13 13:22:55;;;;;;;;;;;;;;;;;;5095382;28;19943;-78
2022/10/13 13:25:20;;;;;;;;;;;;;;;;;;5095725;28;19917;-78
2022/10/13 13:27:46;;;;;;;;;;;;;;;;;;5061219;28;19916;-80
2022/10/13 13:30:11;;;;;;;;;;;;;;;;;;5061201;28;19916;-78
2022/10/13 13:32:37;;;;;;;;;;;;;;;;;;5077704;28;19916;-81
2022/10/13 13:35:03;;;;;;;;;;;;;;;;;;5095840;28;19916;-78
2022/10/13 13:37:35;;;;;;;;;;;;;;;;;;5095832;28;19939;-78
2022/10/13 13:40:01;;;;;;;;;;;;;;;;;;5077703;28;19920;-79
2022/10/13 13:42:26;;;;;;;;;;;;;;;;;;5095691;28;19974;-77
2022/10/13 13:44:52;;;;;;;;;;;;;;;;;;5077492;28;19916;-78
2022/10/13 13:47:19;;;;;;;;;;;;;;;;;;5095513;28;19920;-78
2022/10/13 13:49:44;;;;;;;;;;;;;;;;;;5076908;28;19916;-78
2022/10/13 13:52:10;;;;;;;;;;;;;;;;;;5077731;28;20333;-78
2022/10/13 13:54:35;;;;;;;;;;;;;;;;;;5096467;28;19985;-77
2022/10/13 13:57:00;;;;;;;;;;;;;;;;;;5096754;28;19924;-78
2022/10/13 13:59:26;;;;;;;;;;;;;;;;;;5078692;28;19923;-78
2022/10/13 14:01:51;;;;;;;;;;;;;;;;;;5095720;28;20253;-78
2022/10/13 14:04:16;;;;;;;;;;;;;;;;;;5089847;28;20214;-77
2022/10/13 14:06:42;;;;;;;;;;;;;;;;;;5117480;28;19931;-77
2022/10/13 14:09:07;;;;;;;;;;;;;;;;;;5117052;28;19924;-77
2022/10/13 14:11:32;;;;;;;;;;;;;;;;;;5116821;28;19916;-78
2022/10/13 14:14:00;;;;;;;;;;;;;;;;;;5117404;28;19931;-77
2022/10/13 14:16:26;;;;;;;;;;;;;;;;;;5108996;28;20321;-78
2022/10/13 14:18:51;;;;;;;;;;;;;;;;;;5076389;28;19930;-77
2022/10/13 14:21:16;;;;;;;;;;;;;;;;;;5076675;28;19912;-77
2022/10/13 14:23:45;;;;;;;;;;;;;;;;;;5061006;28;20014;-77
2022/10/13 14:26:11;;;;;;;;;;;;;;;;;;5076797;28;19916;-78
2022/10/13 14:28:36;;;;;;;;;;;;;;;;;;5076561;28;20396;-78
2022/10/13 14:31:05;;;;;;;;;;;;;;;;;;5076358;28;20376;-78
2022/10/13 14:33:30;;;;;;;;;;;;;;;;;;5076789;28;20011;-78
2022/10/13 14:35:59;;;;;;;;;;;;;;;;;;5094461;28;19959;-78
2022/10/13 14:38:25;;;;;;;;;;;;;;;;;;5094497;28;19924;-78
2022/10/13 14:40:50;;;;;;;;;;;;;;;;;;5076493;28;19916;-78
2022/10/13 14:43:16;;;;;;;;;;;;;;;;;;5094482;28;19978;-78
2022/10/13 14:45:41;;;;;;;;;;;;;;;;;;5094357;28;19960;-78
2022/10/13 14:48:06;;;;;;;;;;;;;;;;;;5094083;28;20014;-77
2022/10/13 14:50:32;;;;;;;;;;;;;;;;;;5076267;28;20007;-78
2022/10/13 14:52:57;;;;;;;;;;;;;;;;;;5076340;28;19916;-78
2022/10/13 14:55:22;;;;;;;;;;;;;;;;;;5059714;28;19938;-78
2022/10/13 14:57:48;;;;;;;;;;;;;;;;;;5076638;28;20010;-78
2022/10/13 15:00:13;;;;;;;;;;;;;;;;;;5076289;28;20329;-78
2022/10/13 15:02:39;;;;;;;;;;;;;;;;;;5100767;28;19923;-78
2022/10/13 15:05:04;;;;;;;;;;;;;;;;;;5096275;28;19916;-78
2022/10/13 15:07:30;;;;;;;;;;;;;;;;;;5114719;28;19938;-78
2022/10/13 15:09:55;;;;;;;;;;;;;;;;;;5116019;28;20030;-78
2022/10/13 15:12:20;;;;;;;;;;;;;;;;;;5100655;28;20330;-77
2022/10/13 15:14:45;;;;;;;;;;;;;;;;;;5118690;28;19920;-78
2022/10/13 15:17:11;;;;;;;;;;;;;;;;;;5118784;28;20253;-78
2022/10/13 15:19:36;;;;;;;;;;;;;;;;;;5100611;28;19915;-78
2022/10/13 15:22:02;;;;;;;;;;;;;;;;;;5100384;28;20032;-78
2022/10/13 15:24:27;;;;;;;;;;;;;;;;;;5120163;28;20185;-77
2022/10/13 15:26:52;;;;;;;;;;;;;;;;;;5119259;28;19915;-78
2022/10/13 15:29:18;;;;;;;;;;;;;;;;;;5118742;28;19916;-78
2022/10/13 15:31:43;;;;;;;;;;;;;;;;;;5118795;28;19923;-78
2022/10/13 15:34:08;;;;;;;;;;;;;;;;;;5118505;28;19998;-77
2022/10/13 15:36:34;;;;;;;;;;;;;;;;;;5118443;28;19966;-77
2022/10/13 15:38:59;;;;;;;;;;;;;;;;;;5118253;28;19970;-80
2022/10/13 15:41:25;;;;;;;;;;;;;;;;;;5118104;28;20339;-77
2022/10/13 15:43:50;;;;;;;;;;;;;;;;;;5118107;28;19916;-78
2022/10/13 15:46:23;;;;;;;;;;;;;;;;;;5099528;28;19916;-77
2022/10/13 15:48:52;;;;;;;;;;;;;;;;;;5117933;28;19915;-77
2022/10/13 15:51:18;;;;;;;;;;;;;;;;;;5099551;28;19922;-77
2022/10/13 15:53:44;;;;;;;;;;;;;;;;;;5117946;28;19916;-77
2022/10/13 15:56:09;;;;;;;;;;;;;;;;;;5099653;28;19916;-77
2022/10/13 15:58:34;;;;;;;;;;;;;;;;;;5099854;28;20260;-78
2022/10/13 16:01:00;;;;;;;;;;;;;;;;;;5099602;28;20026;-77
2022/10/13 16:03:28;;;;;;;;;;;;;;;;;;5117905;28;19945;-77
2022/10/13 16:05:54;;;;;;;;;;;;;;;;;;5079632;28;19916;-76
2022/10/13 16:08:19;;;;;;;;;;;;;;;;;;5078689;28;19943;-78
2022/10/13 16:10:44;;;;;;;;;;;;;;;;;;5079351;28;19965;-78
2022/10/13 16:13:11;;;;;;;;;;;;;;;;;;5079142;28;19920;-77
2022/10/13 16:15:36;;;;;;;;;;;;;;;;;;5079091;28;20002;-79
2022/10/13 16:18:02;;;;;;;;;;;;;;;;;;5097120;28;19974;-80
2022/10/13 16:20:33;;;;;;;;;;;;;;;;;;5096523;28;20336;-79
2022/10/13 16:22:58;;;;;;;;;;;;;;;;;;5080361;28;19923;-80
2022/10/13 16:25:23;;;;;;;;;;;;;;;;;;5097278;28;20011;-77
2022/10/13 16:27:49;;;;;;;;;;;;;;;;;;5079168;28;19912;-78
2022/10/13 16:30:14;;;;;;;;;;;;;;;;;;5078457;28;19916;-79
2022/10/13 16:32:40;;;;;;;;;;;;;;;;;;5078882;28;19936;-80
2022/10/13 16:35:05;;;;;;;;;;;;;;;;;;5096824;28;19912;-80
2022/10/13 16:37:31;;;;;;;;;;;;;;;;;;5078710;28;19970;-79
2022/10/13 16:39:56;;;;;;;;;;;;;;;;;;5078917;28;19912;-80
2022/10/13 16:42:21;;;;;;;;;;;;;;;;;;5078500;28;19967;-79
2022/10/13 16:44:47;;;;;;;;;;;;;;;;;;5078278;28;20341;-79
2022/10/13 16:47:12;;;;;;;;;;;;;;;;;;5078545;28;19918;-80
2022/10/13 16:49:37;;;;;;;;;;;;;;;;;;5096416;28;19923;-78
2022/10/13 16:52:03;;;;;;;;;;;;;;;;;;5078373;28;19916;-77
2022/10/13 16:54:31;;;;;;;;;;;;;;;;;;5078271;28;20311;-80